Flight Track Log - Related Links

Times and Time Zones

All times are in EST time to prevent confusion due to time zone crossing. See the N408RT flight status page for this flight to view local times or setup timezone preferences in your user account.

Time Position Orientation Groundspeed Altitude Reporting Facility
EST Latitude Longitude Course Direction KTS MPH feet Rate Location/Type
Tue 09:09:14 24.8761 -81.0433 333° Northwest 409 471 10,300  Level Miami Center
Tue 09:10:14 24.9397 -81.0797 335° Northwest 319 367 13,300 2,750 Climbing Miami Center
Tue 09:11:14 25.0056 -81.1142 333° Northwest 281 323 15,800 2,250 Climbing Miami Center
Tue 09:12:14 25.0794 -81.1556 330° Northwest 281 323 17,800 2,300 Climbing Miami Center
Tue 09:13:14 25.1533 -81.2019 334° Northwest 287 330 20,400 2,150 Climbing Miami Center
Tue 09:14:14 25.2211 -81.2386 334° Northwest 294 338 22,100 2,150 Climbing Miami Center
Tue 09:15:14 25.3014 -81.2828 333° Northwest 301 346 24,700 2,350 Climbing Miami Center
Tue 09:16:14 25.3814 -81.3272 333° Northwest 306 352 26,800 2,100 Climbing Miami Center
Tue 09:17:14 25.4594 -81.3714 333° Northwest 311 358 28,900 2,100 Climbing Miami Center
Tue 09:18:14 25.5394 -81.4158 334° Northwest 319 367 31,000 2,050 Climbing Miami Center
Tue 09:19:14 25.6175 -81.4581 334° Northwest 313 360 33,000 2,050 Climbing Miami Center
Tue 09:20:14 25.6914 -81.4978 332° Northwest 301 346 35,100 1,700 Climbing Miami Center
Tue 09:21:14 25.7592 -81.5372 333° Northwest 291 335 36,400 1,000 Climbing Miami Center
Tue 09:22:14 25.8308 -81.5769 333° Northwest 286 329 37,100 700 Climbing Miami Center
Tue 09:23:14 25.9047 -81.6189 335° Northwest 286 329 37,800 650 Climbing Miami Center
Tue 09:24:14 25.9808 -81.6589 333° Northwest 286 329 38,400 650 Climbing Miami Center
Tue 09:25:14 26.0586 -81.7039 334° Northwest 298 343 39,100 650 Climbing Miami Center
Tue 09:26:14 26.1364 -81.7461 333° Northwest 303 349 39,700 400 Climbing Miami Center
Tue 09:27:14 26.2164 -81.7911 333° Northwest 303 349 39,900 100 Climbing Miami Center
Tue 09:28:14 26.2983 -81.8386 336° Northwest 313 360 39,900  Level Miami Center
Tue 09:29:14 26.3886 -81.8842 331° Northwest 333 383 39,900  Level Miami Center
Tue 09:30:14 26.4806 -81.9414 333° Northwest 344 396 39,900  Level Miami Center
Tue 09:31:14 26.5728 -81.9942 332° Northwest 344 396 39,900  Level Miami Center
Tue 09:32:14 26.6647 -82.0492 333° Northwest 357 411 39,900  Level Miami Center
Tue 09:33:14 26.7567 -82.1022 334° Northwest 367 422 39,900  Level Miami Center
Tue 09:34:14 26.8489 -82.1528 333° Northwest 367 422 39,900  Level Miami Center
Tue 09:35:14 26.9408 -82.2058 336° Northwest 367 422 39,900 50 Level Miami Center
Tue 09:36:14 27.0350 -82.2522 331° Northwest 367 422 40,000  Climbing Miami Center
Tue 09:37:14 27.1267 -82.3100 334° Northwest 367 422 39,900 -50 Descending Miami Center
Tue 09:38:14 27.2189 -82.3611 334° Northwest 367 422 39,900 50 Level Miami Center
Tue 09:39:14 27.3047 -82.4072 332° Northwest 373 429 40,000 50 Climbing Miami Center
Tue 09:40:14 27.3964 -82.4631 334° Northwest 373 429 40,000  Level Miami Center
Tue 09:41:14 27.5006 -82.5197 333° Northwest 373 429 40,000  Level Miami Center
Tue 09:42:14 27.5925 -82.5733 332° Northwest 373 429 40,000  Level Miami Center
Tue 09:43:14 27.6739 -82.6219 332° Northwest 373 429 40,000 -38 Level Miami Center
Tue 09:44:50 27.8181 -82.7094 332° Northwest 369 425 39,900 -38 Descending Jacksonville Center
Tue 09:45:50 27.9078 -82.7633 334° Northwest 369 425 39,900  Level Jacksonville Center
Tue 09:46:50 27.9975 -82.8128 332° Northwest 369 425 39,900  Level Jacksonville Center
Tue 09:47:51 28.0872 -82.8667 334° Northwest 369 425 39,900  Level Jacksonville Center
Tue 09:48:50 28.1750 -82.9161 333° Northwest 369 425 39,900  Level Jacksonville Center
Tue 09:49:50 28.2647 -82.9681 331° Northwest 364 419 39,900  Level Jacksonville Center
Tue 09:50:50 28.3522 -83.0222 334° Northwest 364 419 39,900  Level Jacksonville Center
Tue 09:51:51 28.4419 -83.0719 332° Northwest 359 413 39,900  Level Jacksonville Center
Tue 09:52:51 28.5294 -83.1242 332° Northwest 359 413 39,900  Level Jacksonville Center
Tue 09:53:50 28.6192 -83.1789 332° Northwest 359 413 39,900  Level Jacksonville Center
Tue 09:54:50 28.7067 -83.2311 333° Northwest 353 406 39,900  Level Jacksonville Center
Tue 09:55:51 28.7964 -83.2836 333° Northwest 353 406 39,900  Level Jacksonville Center
Tue 09:56:51 28.8858 -83.3361 333° Northwest 353 406 39,900 50 Level Jacksonville Center
Tue 09:57:50 28.9753 -83.3886 331° Northwest 353 406 40,000  Climbing Jacksonville Center
Tue 09:58:50 29.0628 -83.4436 333° Northwest 353 406 39,900 -50 Descending Jacksonville Center
Tue 09:59:50 29.1461 -83.4917 333° Northwest 352 405 39,900  Level Jacksonville Center
Tue 10:00:50 29.2356 -83.5447 333° Northwest 352 405 39,900  Level Jacksonville Center
Tue 10:01:50 29.3250 -83.5975 333° Northwest 347 399 39,900  Level Jacksonville Center
Tue 10:02:51 29.4125 -83.6483 333° Northwest 347 399 39,900  Level Jacksonville Center
Tue 10:03:50 29.5019 -83.7014 331° Northwest 347 399 39,900  Level Jacksonville Center
Tue 10:04:50 29.5892 -83.7572 332° Northwest 347 399 39,900  Level Jacksonville Center
Tue 10:05:50 29.6786 -83.8131 334° Northwest 353 406 39,900  Level Jacksonville Center
Tue 10:06:50 29.7681 -83.8639 316° Northwest 353 406 39,900  Level Jacksonville Center
Tue 10:07:50 29.8383 -83.9414 301° West 347 399 39,900  Level Jacksonville Center
Tue 10:08:50 29.8878 -84.0378 297° West 337 388 39,900  Level Jacksonville Center
Tue 10:09:50 29.9306 -84.1364 298° West 342 394 39,900  Level Jacksonville Center
Tue 10:10:50 29.9736 -84.2306 296° West 342 394 39,900  Level Jacksonville Center
Tue 10:11:50 30.0161 -84.3294 298° West 342 394 39,900  Level Jacksonville Center
Tue 10:12:50 30.0611 -84.4261 298° West 342 394 39,900  Level Jacksonville Center
Tue 10:13:50 30.1058 -84.5228 297° West 342 394 39,900  Level Jacksonville Center
Tue 10:14:50 30.1483 -84.6197 296° West 342 394 39,900  Level Jacksonville Center
Tue 10:15:50 30.1908 -84.7189 300° West 342 394 39,900  Level Jacksonville Center
Tue 10:16:50 30.2375 -84.8136 296° West 342 394 39,900  Level Jacksonville Center
Tue 10:17:50 30.2797 -84.9131 298° West 342 394 39,900  Level Jacksonville Center
Tue 10:18:50 30.3242 -85.0103 298° West 342 394 39,900  Level Jacksonville Center
Tue 10:19:50 30.3683 -85.1075 297° West 342 394 39,900  Level Jacksonville Center
Tue 10:20:50 30.4144 -85.2147 298° West 342 394 39,900  Level Jacksonville Center
Tue 10:21:50 30.4586 -85.3119 297° West 342 394 39,900  Level Jacksonville Center
Tue 10:22:50 30.5006 -85.4072 297° West 342 394 39,900  Level Jacksonville Center
Tue 10:23:50 30.5444 -85.5072 296° West 342 394 39,900  Level Jacksonville Center
Tue 10:24:50 30.5842 -85.6025 297° West 342 394 39,900  Level Jacksonville Center
Tue 10:25:50 30.6261 -85.6978 296° West 342 394 39,900  Level Jacksonville Center
Tue 10:26:51 30.6678 -85.7956 295° West 342 394 39,900  Level Jacksonville Center
Tue 10:27:50 30.7072 -85.8933 282° West 342 394 39,900  Level Jacksonville Center
Tue 10:28:50 30.7256 -85.9978 277° West 336 387 39,900  Level Jacksonville Center
Tue 10:29:50 30.7375 -86.1044 276° West 330 380 39,900  Level Jacksonville Center
Tue 10:30:50 30.7472 -86.2114 277° West 330 380 39,900  Level Jacksonville Center
Tue 10:31:51 30.7589 -86.3206 278° West 335 386 39,900 50 Level Jacksonville Center
Tue 10:32:50 30.7708 -86.4247 276° West 335 386 40,000  Climbing Jacksonville Center
Tue 10:33:50 30.7803 -86.5339 276° West 335 386 39,900 -50 Descending Jacksonville Center
Tue 10:34:50 30.7897 -86.6406 280° West 335 386 39,900 50 Level Jacksonville Center
Tue 10:35:50 30.8053 -86.7478 277° West 330 380 40,000 50 Climbing Jacksonville Center
Tue 10:36:51 30.8164 -86.8569 276° West 335 386 40,000  Level Jacksonville Center
Tue 10:37:50 30.8258 -86.9614 277° West 335 386 40,000  Level Jacksonville Center
Tue 10:38:50 30.8367 -87.0708 277° West 335 386 40,000  Level Jacksonville Center
Tue 10:40:31 30.8544 -87.2500 275° West 333 383 40,000  Level Houston Center
Tue 10:41:31 30.8622 -87.3561 276° West 333 383 40,000  Level Houston Center
Tue 10:42:32 30.8717 -87.4644 278° West 328 377 40,000  Level Houston Center
Tue 10:43:32 30.8833 -87.5678 276° West 328 377 40,000  Level Houston Center
Tue 10:44:31 30.8928 -87.6764 278° West 335 386 40,000 -50 Level Houston Center
Tue 10:45:31 30.9039 -87.7728 279° West 335 386 39,900 -50 Descending Houston Center
Tue 10:46:31 30.9175 -87.8786 273° West 335 386 39,900  Level Houston Center
Tue 10:47:32 30.9225 -87.9872 278° West 335 386 39,900  Level Houston Center
Tue 10:48:31 30.9358 -88.0933 278° West 335 386 39,900  Level Houston Center
Tue 10:49:31 30.9489 -88.1994 274° West 335 386 39,900  Level Houston Center
Tue 10:50:31 30.9558 -88.3081 273° West 335 386 39,900  Level Houston Center
Tue 10:51:31 30.9606 -88.4192 278° West 335 386 39,900  Level Houston Center
Tue 10:52:32 30.9736 -88.5228 273° West 335 386 39,900 50 Level Houston Center
Tue 10:53:31 30.9783 -88.6389 275° West 341 392 40,000 50 Climbing Houston Center
Tue 10:54:31 30.9869 -88.7453 275° West 341 392 40,000  Level Houston Center
Tue 10:55:31 30.9956 -88.8539 276° West 346 398 40,000  Level Houston Center
Tue 10:56:31 31.0058 -88.9603 275° West 341 392 40,000  Level Houston Center
Tue 10:57:31 31.0144 -89.0692 275° West 341 392 40,000  Level Houston Center
Tue 10:58:31 31.0228 -89.1803 275° West 341 392 40,000  Level Houston Center
Tue 10:59:32 31.0308 -89.2867 275° West 341 392 40,000  Level Houston Center
Tue 11:00:31 31.0392 -89.3978 275° West 341 392 40,000  Level Houston Center
Tue 11:01:31 31.0472 -89.5067 276° West 346 398 40,000  Level Houston Center
Tue 11:02:31 31.0572 -89.6131 273° West 346 398 40,000  Level Houston Center
Tue 11:03:31 31.0628 -89.7222 276° West 346 398 40,000  Level Houston Center
Tue 11:04:31 31.0728 -89.8358 275° West 340 391 40,000  Level Houston Center
Tue 11:05:31 31.0806 -89.9425 275° West 335 386 40,000  Level Houston Center
Tue 11:06:31 31.0881 -90.0442 275° West 329 379 40,000  Level Houston Center
Tue 11:07:31 31.0956 -90.1481 277° West 329 379 40,000  Level Houston Center
Tue 11:08:32 31.1069 -90.2522 273° West 329 379 40,000  Level Houston Center
Tue 11:09:31 31.1122 -90.3589 273° West 329 379 40,000  Level Houston Center
Tue 11:10:31 31.1175 -90.4656 279° West 329 379 40,000  Level Houston Center
Tue 11:11:31 31.1308 -90.5622 274° West 329 379 40,000  Level Houston Center
Tue 11:12:31 31.1378 -90.6714 276° West 334 384 40,000  Level Houston Center
Tue 11:13:31 31.1469 -90.7781 274° West 334 384 40,000  Level Houston Center
Tue 11:14:31 31.1539 -90.8872 274° West 334 384 40,000  Level Houston Center
Tue 11:15:31 31.1608 -90.9986 275° West 334 384 40,000  Level Houston Center
Tue 11:16:31 31.1694 -91.1078 274° West 339 390 40,000  Level Houston Center
Tue 11:17:31 31.1761 -91.2169 274° West 339 390 40,000  Level Houston Center
Tue 11:18:31 31.1828 -91.3214 274° West 339 390 40,000  Level Houston Center
Tue 11:19:31 31.1892 -91.4306 275° West 334 384 40,000  Level Houston Center
Tue 11:20:32 31.1978 -91.5422 274° West 334 384 40,000  Level Houston Center
Tue 11:21:32 31.2042 -91.6489 274° West 339 390 40,000  Level Houston Center
Tue 11:22:31 31.2103 -91.7606 275° West 339 390 40,000  Level Houston Center
Tue 11:23:31 31.2186 -91.8675 274° West 339 390 40,000  Level Houston Center
Tue 11:24:31 31.2244 -91.9742 275° West 339 390 40,000 -50 Level Houston Center
Tue 11:25:31 31.2325 -92.0858 275° West 345 397 39,900 -50 Descending Houston Center
Tue 11:26:32 31.2406 -92.1953 274° West 345 397 39,900  Level Houston Center
Tue 11:27:32 31.2464 -92.3022 274° West 345 397 39,900  Level Houston Center
Tue 11:28:32 31.2522 -92.4089 277° West 345 397 39,900  Level Houston Center
Tue 11:29:32 31.2639 -92.5158 293° West 345 397 39,900  Level Houston Center
Tue 11:30:32 31.3028 -92.6208 293° West 340 391 39,900  Level Houston Center
Tue 11:31:32 31.3397 -92.7208 294° West 340 391 39,900 -151 Level Houston Center
Tue 11:32:31 31.3786 -92.8233 294° West 340 391 39,600 -489 Descending Houston Center
Tue 11:34:36 31.4589 -93.0325 293° West 343 395 38,400 -519 Descending Fort Center
Tue 11:35:36 31.4958 -93.1353 293° West 343 395 38,000 -200 Descending Fort Center
Tue 11:36:36 31.5325 -93.2361 295° West 343 395 38,000  Level Fort Center
Tue 11:37:36 31.5711 -93.3342 293° West 343 395 38,000  Level Fort Center
Tue 11:38:36 31.6056 -93.4278 292° West 332 382 38,000  Level Fort Center
Tue 11:39:36 31.6400 -93.5264 291° West 332 382 38,000 -50 Level Fort Center
Tue 11:40:36 31.6719 -93.6228 293° West 332 382 37,900 -350 Descending Fort Center
Tue 11:41:36 31.7083 -93.7236 291° West 327 376 37,300 -600 Descending Fort Center
Tue 11:42:36 31.7406 -93.8250 293° West 327 376 36,700 -600 Descending Fort Center
Tue 11:43:36 31.7767 -93.9239 291° West 327 376 36,100 -350 Descending Fort Center
Tue 11:44:36 31.8086 -94.0228 293° West 327 376 36,000 -50 Descending Fort Center
Tue 11:45:36 31.8425 -94.1169 291° West 321 369 36,000  Level Fort Center
Tue 11:46:36 31.8764 -94.2208 293° West 328 377 36,000  Level Fort Center
Tue 11:47:36 31.9125 -94.3200 290° West 328 377 36,000  Level Fort Center
Tue 11:48:36 31.9442 -94.4242 293° West 328 377 36,000  Level Fort Center
Tue 11:49:36 31.9800 -94.5258 291° West 328 377 36,000  Level Fort Center
Tue 11:50:36 32.0136 -94.6278 290° West 328 377 36,000  Level Fort Center
Tue 11:51:36 32.0450 -94.7297 292° West 328 377 36,000  Level Fort Center
Tue 11:52:36 32.0806 -94.8317 291° West 328 377 36,000  Level Fort Center
Tue 11:53:36 32.1139 -94.9336 291° West 328 377 36,000 -450 Level Fort Center
Tue 11:54:36 32.1472 -95.0383 291° West 328 377 35,100 -1,600 Descending Fort Center
Tue 11:55:36 32.1781 -95.1356 293° West 323 372 32,800 -2,450 Descending Fort Center
Tue 11:56:36 32.2156 -95.2403 290° West 323 372 30,200 -2,350 Descending Fort Center
Tue 11:57:36 32.2486 -95.3450 293° West 330 380 28,100 -2,000 Descending Fort Center
Tue 11:58:36 32.2878 -95.4522 291° West 351 404 26,200 -1,950 Descending Fort Center
Tue 11:59:36 32.3231 -95.5622 291° West 351 404 24,200 -2,100 Descending Fort Center
Tue 12:00:36 32.3581 -95.6722 290° West 357 411 22,000 -2,250 Descending Fort Center
Tue 12:01:36 32.3906 -95.7772 291° West 351 404 19,700 -2,200 Descending Fort Center
Tue 12:02:36 32.4233 -95.8800 293° West 346 398 17,600 -2,165 Descending Fort Center
Tue 12:03:49 32.4653 -95.9947 289° West 331 381 14,900 -2,124 Descending FAA TRACON
Tue 12:04:29 32.4861 -96.0647 289° West 324 373 13,600 -1,852 Descending FAA TRACON
Tue 12:05:10 32.5058 -96.1333 291° West 317 365 12,400 -1,725 Descending FAA TRACON
Tue 12:05:49 32.5244 -96.1906 289° West 302 348 11,300 -1,769 Descending FAA TRACON
Tue 12:06:28 32.5417 -96.2517 290° West 280 322 10,100 -1,747 Descending FAA TRACON
Tue 12:07:08 32.5578 -96.3042 299° West 274 315 9,000 -1,037 Descending FAA TRACON
Tue 12:07:49 32.5836 -96.3589 305° West 275 316 8,700 -815 Descending FAA TRACON
Tue 12:08:29 32.6144 -96.4119 303° West 282 325 7,900 -1,111 Descending FAA TRACON
Tue 12:09:10 32.6439 -96.4653 306° West 279 321 7,200 -1,012 Descending FAA TRACON
Tue 12:09:52 32.6750 -96.5164 327° Northwest 279 321 6,500 -975 Descending FAA TRACON
Tue 12:10:30 32.7178 -96.5497 326° Northwest 297 342 5,900 -1,063 Descending FAA TRACON
Tue 12:11:11 32.7653 -96.5883 326° Northwest 297 342 5,100 -750 Descending FAA TRACON
Tue 12:11:50 32.8069 -96.6214 326° Northwest 290 334 4,900 -304 Descending FAA TRACON
Tue 12:12:30 32.8536 -96.6586 326° Northwest 292 336 4,700 -675 Descending FAA TRACON
Tue 12:13:10 32.8992 -96.6958 325° Northwest 286 329 4,000 -600 Descending FAA TRACON
Tue 12:13:50 32.9350 -96.7256 303° West 256 295 3,900 -75 Descending FAA TRACON
Tue 12:14:30 32.9581 -96.7686 283° West 226 260 3,900 -675 Level FAA TRACON
Tue 12:15:10 32.9675 -96.8156 284° West 208 239 3,000 -750 Descending FAA TRACON
Tue 12:15:50 32.9758 -96.8558 256° West 202 232 2,900 -750 Descending FAA TRACON
Tue 12:16:30 32.9664 -96.9006 241° Southwest 202 232 2,000 -750 Descending FAA TRACON
Tue 12:17:10 32.9506 -96.9350 200° South 178 205 1,900 -75 Descending FAA TRACON
Tue 12:17:50 32.9258 -96.9458 137° Southeast 164 189 1,900 -75 Level FAA TRACON
Tue 12:18:30 32.9042 -96.9217 136° Southeast 152 175 1,800 -375 Descending FAA TRACON
Tue 12:19:10 32.8872 -96.9022 138° Southeast 119 137 1,400 -532 Descending FAA TRACON
Tue 12:19:49 32.8725 -96.8864 135° Southeast 115 132 1,100 -608 Descending FAA TRACON
Tue 12:20:29 32.8569 -96.8678 135° Southeast 114 131 600 -750 Descending FAA TRACON

Login

Don't have an account? Register now (free) for customized features, flight alerts, and more!